Terminal Aerodrome Forecast
Issued by NWS Charleston, SC

Home | Current Version | Previous Version | Text Only | Print | Product List | Glossary On
Versions: 1 2 3 4 5 6 7 8 9 10 11 12 13 14 15 16 17 18 19 20
602
FTUS42 KCHS 251257 AAB
TAFCHS
TAF AMD
KCHS 251257Z 2513/2612 23006KT P6SM SCT008 SCT020 BKN200
      TEMPO 2513/2516 BKN008 BKN020
     FM251700 23008KT P6SM VCTS SCT030CB BKN060
     FM260000 23004KT P6SM SCT025 BKN150
     FM260800 VRB02KT P6SM VCSH SCT015 BKN140=

USA.gov is the U.S. government's official web portal to all federal, state and local government web resources and services.